Paradise Park, Pennsylvania
Current Conditions -  °F | °C
As of 10:56 AM on Saturday 22 Nov 2014 (Local Time) from KCXY Reporting Station
Clear Clear  
Wind Chill: 30°   Ceiling: Unl
Heat Index: 37°   Visibility: 10mi
Dew Point: 15°   Wind: 9mph
Humidity: 41%   Direction: 200°SSW
Pressure: 30.42"   Gusts: NA
Location:  40.4189°N, 77.1972°W
Report Text: KCXY 221556Z 20008KT 10SM CLR 03/M09 A3042 RMK AO2 SLP307 T00281094
Loading
Personal Weather Stations






























Interactive Weather Map New forecast layout! Learn more

10-Day Weather Forecast

Advertisements
Track Severe Weather on mobile